Meteo Giornale » Osservazioni meteo Stati Uniti (USA) » Alexandria
ore: 13:53 - Osservazioni Meteo Alexandria
Lat. 31° 20' N Lon. 92° 33' W Alt. 27 metri s.l.m.
34 °C
Poco Nuvoloso
Temp. 24 Ore
23 °C
36 °C
Est/Nord-Est
14.8 Km/h
Dew point 22 °C
Umidità 49 %
Visibilità 10 Km
Il sole sorge alle ore 06:45
Il sole tramonta alle ore 19:35
| Data e Ora | Cielo e Fenomeni | T °C | DP °C | Um. % | Pres. hPa | Vis. km | Vento km/h | |
|---|---|---|---|---|---|---|---|---|
| Oggi h: 13:53 | Poco Nuvoloso | 34 | 22 | 49 | 1016 | 10 | E/NE 14.8 | |
| Oggi h: 12:53 | Poco Nuvoloso | 33 | 23 | 55 | 1017 | 10 | E/NE 11.1 | |
| Oggi h: 11:53 | Poco Nuvoloso | 32 | 23 | 59 | 1018 | 10 | E 11.1 | |
| Oggi h: 11:01 | Nuvoloso | 32 | 23 | 59 | 1018 | 10 | E 13 | |
| Oggi h: 10:53 | Molto Nuvoloso | 32 | 23 | 59 | 1018 | 10 | N 11.1 | |
| Oggi h: 09:53 | Sereno | 29 | 24 | 74 | 1018 | 10 | E/SE 11.1 | |
| Oggi h: 08:53 | Sereno | 28 | 24 | 78 | 1018 | 10 | E/NE 7.4 | |
| Oggi h: 07:53 | Sereno | 26 | 24 | 88 | 1017 | 10 | N 5.5 | |
| Oggi h: 06:53 | Sereno | 23 | 23 | 100 | 1016 | 10 | N 0 | |
| Oggi h: 05:53 | Sereno | 23 | 23 | 100 | 1016 | 10 | N 0 | |
| Oggi h: 04:53 | Sereno | 24 | 23 | 94 | 1016 | 10 | N 0 | |
| Oggi h: 03:53 | Sereno | 24 | 23 | 94 | 1016 | 10 | N 0 | |
| Oggi h: 02:53 | Sereno | 24 | 23 | 94 | 1016 | 10 | N 0 | |
| Oggi h: 01:53 | Sereno | 26 | 23 | 83 | 1016 | 10 | N 0 | |
| Oggi h: 00:53 | Sereno | 26 | 23 | 83 | 1016 | 10 | N 0 | |
| Ieri h: 23:53 | Sereno | 27 | 23 | 78 | 1016 | 10 | S/SE 9.3 | |
| Ieri h: 22:53 | Sereno | 27 | 23 | 78 | 1016 | 10 | S/SE 11.1 | |
| Ieri h: 21:53 | Sereno | 28 | 23 | 74 | 1015 | 10 | S/SE 16.7 | |
| Ieri h: 20:53 | Sereno | 30 | 21 | 58 | 1014 | 10 | E/SE 9.3 | |
| Ieri h: 19:53 | Sereno | 30 | 22 | 62 | 1014 | 10 | N 0 | |
| Ieri h: 18:53 | Sereno | 34 | 19 | 41 | 1014 | 10 | N 5.5 | |
| Ieri h: 17:53 | Sereno | 35 | 18 | 36 | 1014 | 10 | E/NE 9.3 | |
| Ieri h: 16:53 | Sereno | 36 | 18 | 34 | 1014 | 10 | N 9.3 | |
| Ieri h: 15:53 | Sereno | 36 | 18 | 34 | 1014 | 10 | SE 9.3 | |
| Ieri h: 14:53 | Poco Nuvoloso | 36 | 19 | 36 | 1015 | 10 | E 9.3 | |



